Ibirapua, Brazil
Current Conditions -  °F | °C
As of 8:00 AM on Friday 24 Oct 2014 (Local Time) from SBPS Reporting Station
Scattered Clouds Scattered Clouds  
Wind Chill: 77°   Ceiling: Unl
Heat Index: 79°   Visibility: 6mi
Dew Point: 68°   Wind: 6mph
Humidity: 74%   Direction: 160°SSE
Pressure: 30.06"   Gusts: NA
Location:  17.69°S, 40.11°W
Report Text: SBPS 241100Z 16005KT 9999 SCT020 25/20 Q1018
Loading
Personal Weather Stations






























Interactive Weather Map
Tropical Storm Tracking
New forecast layout! Learn more

10-Day Weather Forecast

Advertisements
Track Severe Weather on mobile